sensor_id;sensor_type;location;lat;lon;timestamp;pressure;altitude;pressure_sealevel;temperature;humidity
61039;BME280;46919;45.816;3.104;2022-12-16T00:01:09;96536.88;;;1.89;100.00
61039;BME280;46919;45.816;3.104;2022-12-16T00:03:34;96534.41;;;1.81;100.00
61039;BME280;46919;45.816;3.104;2022-12-16T00:06:01;96542.59;;;1.79;100.00
61039;BME280;46919;45.816;3.104;2022-12-16T00:08:30;96544.22;;;1.74;100.00
61039;BME280;46919;45.816;3.104;2022-12-16T00:10:57;96545.41;;;1.65;100.00
61039;BME280;46919;45.816;3.104;2022-12-16T00:13:23;96544.81;;;1.62;100.00
61039;BME280;46919;45.816;3.104;2022-12-16T00:15:48;96546.22;;;1.58;100.00
61039;BME280;46919;45.816;3.104;2022-12-16T00:18:14;96545.00;;;1.54;100.00
61039;BME280;46919;45.816;3.104;2022-12-16T00:20:48;96548.88;;;1.52;100.00
61039;BME280;46919;45.816;3.104;2022-12-16T00:23:14;96548.25;;;1.56;100.00
61039;BME280;46919;45.816;3.104;2022-12-16T00:25:43;96555.00;;;1.52;100.00
61039;BME280;46919;45.816;3.104;2022-12-16T00:28:10;96553.19;;;1.53;100.00
61039;BME280;46919;45.816;3.104;2022-12-16T00:30:36;96559.94;;;1.55;100.00
61039;BME280;46919;45.816;3.104;2022-12-16T00:33:01;96562.59;;;1.55;100.00
61039;BME280;46919;45.816;3.104;2022-12-16T00:35:27;96560.56;;;1.57;100.00
61039;BME280;46919;45.816;3.104;2022-12-16T00:37:52;96566.72;;;1.58;100.00
61039;BME280;46919;45.816;3.104;2022-12-16T00:40:18;96567.50;;;1.58;100.00
61039;BME280;46919;45.816;3.104;2022-12-16T00:42:43;96571.63;;;1.54;100.00
61039;BME280;46919;45.816;3.104;2022-12-16T00:45:09;96574.69;;;1.51;100.00
61039;BME280;46919;45.816;3.104;2022-12-16T00:47:35;96577.94;;;1.53;100.00
61039;BME280;46919;45.816;3.104;2022-12-16T00:50:01;96592.06;;;1.47;100.00
61039;BME280;46919;45.816;3.104;2022-12-16T00:52:26;96591.66;;;1.50;100.00
61039;BME280;46919;45.816;3.104;2022-12-16T00:54:52;96594.31;;;1.50;100.00
61039;BME280;46919;45.816;3.104;2022-12-16T00:57:17;96603.09;;;1.44;100.00
61039;BME280;46919;45.816;3.104;2022-12-16T00:59:42;96604.53;;;1.40;100.00
61039;BME280;46919;45.816;3.104;2022-12-16T01:02:08;96597.34;;;1.34;100.00
61039;BME280;46919;45.816;3.104;2022-12-16T01:04:35;96600.81;;;1.34;100.00
61039;BME280;46919;45.816;3.104;2022-12-16T01:07:00;96607.19;;;1.40;100.00
61039;BME280;46919;45.816;3.104;2022-12-16T01:09:26;96604.38;;;1.48;100.00
61039;BME280;46919;45.816;3.104;2022-12-16T01:11:51;96606.56;;;1.38;100.00
61039;BME280;46919;45.816;3.104;2022-12-16T01:14:16;96606.34;;;1.33;100.00
61039;BME280;46919;45.816;3.104;2022-12-16T01:16:43;96610.47;;;1.42;100.00
61039;BME280;46919;45.816;3.104;2022-12-16T01:19:09;96620.31;;;1.41;100.00
61039;BME280;46919;45.816;3.104;2022-12-16T01:21:34;96624.00;;;1.47;100.00
61039;BME280;46919;45.816;3.104;2022-12-16T01:23:59;96618.91;;;1.52;100.00
61039;BME280;46919;45.816;3.104;2022-12-16T01:26:25;96619.94;;;1.51;100.00
61039;BME280;46919;45.816;3.104;2022-12-16T01:28:50;96633.63;;;1.41;100.00
61039;BME280;46919;45.816;3.104;2022-12-16T01:31:17;96636.50;;;1.40;100.00
61039;BME280;46919;45.816;3.104;2022-12-16T01:33:43;96640.34;;;1.37;100.00
61039;BME280;46919;45.816;3.104;2022-12-16T01:36:09;96642.56;;;1.27;100.00
61039;BME280;46919;45.816;3.104;2022-12-16T01:38:35;96646.47;;;1.31;100.00
61039;BME280;46919;45.816;3.104;2022-12-16T01:41:01;96647.31;;;1.32;100.00
61039;BME280;46919;45.816;3.104;2022-12-16T01:43:30;96650.59;;;1.34;100.00
61039;BME280;46919;45.816;3.104;2022-12-16T01:46:12;96652.38;;;1.26;100.00
61039;BME280;46919;45.816;3.104;2022-12-16T01:51:20;96672.69;;;1.34;100.00
61039;BME280;46919;45.816;3.104;2022-12-16T01:53:50;96674.53;;;1.34;100.00
61039;BME280;46919;45.816;3.104;2022-12-16T01:56:18;96676.97;;;1.29;100.00
61039;BME280;46919;45.816;3.104;2022-12-16T01:58:45;96680.03;;;1.25;100.00
61039;BME280;46919;45.816;3.104;2022-12-16T02:01:11;96687.38;;;1.23;100.00
61039;BME280;46919;45.816;3.104;2022-12-16T02:03:37;96690.00;;;1.17;100.00
61039;BME280;46919;45.816;3.104;2022-12-16T02:06:05;96697.53;;;1.13;100.00
61039;BME280;46919;45.816;3.104;2022-12-16T02:08:30;96702.25;;;1.11;100.00
61039;BME280;46919;45.816;3.104;2022-12-16T02:11:07;96706.06;;;1.02;100.00
61039;BME280;46919;45.816;3.104;2022-12-16T02:16:33;96714.97;;;0.87;100.00
61039;BME280;46919;45.816;3.104;2022-12-16T02:21:51;96714.78;;;0.89;100.00
61039;BME280;46919;45.816;3.104;2022-12-16T02:38:32;96736.81;;;0.61;100.00
61039;BME280;46919;45.816;3.104;2022-12-16T02:41:05;96730.03;;;0.59;100.00
61039;BME280;46919;45.816;3.104;2022-12-16T02:43:51;96733.16;;;0.62;100.00
61039;BME280;46919;45.816;3.104;2022-12-16T02:46:20;96742.94;;;0.62;100.00
61039;BME280;46919;45.816;3.104;2022-12-16T02:48:47;96735.09;;;0.53;100.00
61039;BME280;46919;45.816;3.104;2022-12-16T02:51:12;96733.47;;;0.52;100.00
61039;BME280;46919;45.816;3.104;2022-12-16T02:53:39;96734.41;;;0.45;100.00
61039;BME280;46919;45.816;3.104;2022-12-16T03:02:06;96745.63;;;0.40;100.00
61039;BME280;46919;45.816;3.104;2022-12-16T03:04:41;96752.94;;;0.38;100.00
61039;BME280;46919;45.816;3.104;2022-12-16T03:07:10;96749.66;;;0.36;100.00
61039;BME280;46919;45.816;3.104;2022-12-16T03:09:39;96758.19;;;0.31;100.00
61039;BME280;46919;45.816;3.104;2022-12-16T03:12:09;96757.19;;;0.32;100.00
61039;BME280;46919;45.816;3.104;2022-12-16T03:14:38;96761.94;;;0.37;100.00
61039;BME280;46919;45.816;3.104;2022-12-16T03:17:03;96759.66;;;0.34;100.00
61039;BME280;46919;45.816;3.104;2022-12-16T03:19:30;96765.34;;;0.31;100.00
61039;BME280;46919;45.816;3.104;2022-12-16T03:22:08;96763.50;;;0.31;100.00
61039;BME280;46919;45.816;3.104;2022-12-16T03:24:35;96761.69;;;0.32;100.00
61039;BME280;46919;45.816;3.104;2022-12-16T03:27:20;96775.72;;;0.26;100.00
61039;BME280;46919;45.816;3.104;2022-12-16T03:35:47;96784.06;;;0.23;100.00
61039;BME280;46919;45.816;3.104;2022-12-16T03:38:15;96775.25;;;0.22;100.00
61039;BME280;46919;45.816;3.104;2022-12-16T03:40:41;96774.06;;;0.25;100.00
61039;BME280;46919;45.816;3.104;2022-12-16T03:43:10;96774.50;;;0.28;100.00
61039;BME280;46919;45.816;3.104;2022-12-16T03:45:40;96786.34;;;0.26;100.00
61039;BME280;46919;45.816;3.104;2022-12-16T03:48:08;96784.44;;;0.20;100.00
61039;BME280;46919;45.816;3.104;2022-12-16T03:50:35;96785.88;;;0.22;100.00
61039;BME280;46919;45.816;3.104;2022-12-16T03:53:01;96781.41;;;0.23;100.00
61039;BME280;46919;45.816;3.104;2022-12-16T03:55:27;96792.22;;;0.21;100.00
61039;BME280;46919;45.816;3.104;2022-12-16T03:57:53;96778.84;;;0.14;100.00
61039;BME280;46919;45.816;3.104;2022-12-16T04:00:19;96784.00;;;0.16;100.00
61039;BME280;46919;45.816;3.104;2022-12-16T04:02:45;96791.66;;;0.26;100.00
61039;BME280;46919;45.816;3.104;2022-12-16T04:05:11;96787.34;;;0.25;100.00
61039;BME280;46919;45.816;3.104;2022-12-16T04:07:37;96790.38;;;0.22;100.00
61039;BME280;46919;45.816;3.104;2022-12-16T04:10:03;96800.00;;;0.23;100.00
61039;BME280;46919;45.816;3.104;2022-12-16T04:12:29;96795.63;;;0.15;100.00
61039;BME280;46919;45.816;3.104;2022-12-16T04:15:13;96795.78;;;0.13;100.00
61039;BME280;46919;45.816;3.104;2022-12-16T04:18:11;96792.22;;;0.06;100.00
61039;BME280;46919;45.816;3.104;2022-12-16T04:20:56;96799.19;;;0.07;100.00
61039;BME280;46919;45.816;3.104;2022-12-16T04:23:55;96805.06;;;0.03;100.00
61039;BME280;46919;45.816;3.104;2022-12-16T04:26:40;96811.84;;;0.05;100.00
61039;BME280;46919;45.816;3.104;2022-12-16T04:29:24;96808.94;;;0.00;100.00
61039;BME280;46919;45.816;3.104;2022-12-16T04:31:51;96804.78;;;-0.03;100.00
61039;BME280;46919;45.816;3.104;2022-12-16T04:34:16;96813.94;;;-0.05;100.00
61039;BME280;46919;45.816;3.104;2022-12-16T04:36:58;96821.91;;;-0.05;100.00
61039;BME280;46919;45.816;3.104;2022-12-16T04:39:43;96825.13;;;0.05;100.00
61039;BME280;46919;45.816;3.104;2022-12-16T04:42:27;96820.56;;;-0.01;100.00
61039;BME280;46919;45.816;3.104;2022-12-16T04:45:11;96836.75;;;0.04;100.00
61039;BME280;46919;45.816;3.104;2022-12-16T04:47:55;96840.31;;;-0.04;100.00
61039;BME280;46919;45.816;3.104;2022-12-16T04:50:39;96834.47;;;-0.14;100.00
61039;BME280;46919;45.816;3.104;2022-12-16T04:53:24;96842.63;;;-0.15;100.00
61039;BME280;46919;45.816;3.104;2022-12-16T04:56:08;96846.28;;;-0.16;100.00
61039;BME280;46919;45.816;3.104;2022-12-16T04:58:52;96840.34;;;-0.19;100.00
61039;BME280;46919;45.816;3.104;2022-12-16T05:01:36;96847.84;;;-0.22;100.00
61039;BME280;46919;45.816;3.104;2022-12-16T05:04:20;96858.66;;;-0.24;100.00
61039;BME280;46919;45.816;3.104;2022-12-16T05:07:04;96858.34;;;-0.29;100.00
61039;BME280;46919;45.816;3.104;2022-12-16T05:09:51;96870.28;;;-0.25;100.00
61039;BME280;46919;45.816;3.104;2022-12-16T05:12:35;96873.56;;;-0.23;100.00
61039;BME280;46919;45.816;3.104;2022-12-16T05:15:28;96883.09;;;-0.13;100.00
61039;BME280;46919;45.816;3.104;2022-12-16T05:21:01;96884.84;;;-0.21;100.00
61039;BME280;46919;45.816;3.104;2022-12-16T05:23:49;96890.38;;;-0.30;100.00
61039;BME280;46919;45.816;3.104;2022-12-16T05:26:33;96907.97;;;-0.29;100.00
61039;BME280;46919;45.816;3.104;2022-12-16T05:29:19;96901.19;;;-0.32;100.00
61039;BME280;46919;45.816;3.104;2022-12-16T05:32:03;96904.16;;;-0.27;100.00
61039;BME280;46919;45.816;3.104;2022-12-16T05:34:47;96916.41;;;-0.26;100.00
61039;BME280;46919;45.816;3.104;2022-12-16T05:37:30;96917.47;;;-0.35;100.00
61039;BME280;46919;45.816;3.104;2022-12-16T05:40:14;96916.47;;;-0.34;100.00
61039;BME280;46919;45.816;3.104;2022-12-16T05:42:58;96925.44;;;-0.35;100.00
61039;BME280;46919;45.816;3.104;2022-12-16T05:45:42;96934.97;;;-0.41;100.00
61039;BME280;46919;45.816;3.104;2022-12-16T05:48:26;96931.94;;;-0.38;100.00
61039;BME280;46919;45.816;3.104;2022-12-16T05:51:10;96931.78;;;-0.36;100.00
61039;BME280;46919;45.816;3.104;2022-12-16T05:53:54;96940.38;;;-0.34;100.00
61039;BME280;46919;45.816;3.104;2022-12-16T05:56:38;96947.53;;;-0.34;100.00
61039;BME280;46919;45.816;3.104;2022-12-16T05:59:22;96968.00;;;-0.43;100.00
61039;BME280;46919;45.816;3.104;2022-12-16T06:02:06;96958.06;;;-0.49;100.00
61039;BME280;46919;45.816;3.104;2022-12-16T06:04:50;96954.97;;;-0.53;100.00
61039;BME280;46919;45.816;3.104;2022-12-16T06:07:33;96955.13;;;-0.55;100.00
61039;BME280;46919;45.816;3.104;2022-12-16T06:10:17;96966.22;;;-0.51;100.00
61039;BME280;46919;45.816;3.104;2022-12-16T06:13:01;96966.28;;;-0.59;100.00
61039;BME280;46919;45.816;3.104;2022-12-16T06:15:45;96971.41;;;-0.58;100.00
61039;BME280;46919;45.816;3.104;2022-12-16T06:18:29;96974.25;;;-0.59;100.00
61039;BME280;46919;45.816;3.104;2022-12-16T06:21:13;96969.78;;;-0.59;100.00
61039;BME280;46919;45.816;3.104;2022-12-16T06:23:57;96990.47;;;-0.54;100.00
61039;BME280;46919;45.816;3.104;2022-12-16T06:26:41;96985.16;;;-0.54;100.00
61039;BME280;46919;45.816;3.104;2022-12-16T06:29:24;96988.81;;;-0.55;100.00
61039;BME280;46919;45.816;3.104;2022-12-16T06:32:08;96986.53;;;-0.58;100.00
61039;BME280;46919;45.816;3.104;2022-12-16T06:35:10;96991.38;;;-0.62;100.00
61039;BME280;46919;45.816;3.104;2022-12-16T06:37:53;96993.69;;;-0.67;100.00
61039;BME280;46919;45.816;3.104;2022-12-16T06:40:37;97000.38;;;-0.71;100.00
61039;BME280;46919;45.816;3.104;2022-12-16T06:43:21;97004.19;;;-0.74;100.00
61039;BME280;46919;45.816;3.104;2022-12-16T06:46:05;97010.59;;;-0.60;100.00
61039;BME280;46919;45.816;3.104;2022-12-16T06:48:49;97010.41;;;-0.58;100.00
61039;BME280;46919;45.816;3.104;2022-12-16T06:51:33;97020.22;;;-0.59;100.00
61039;BME280;46919;45.816;3.104;2022-12-16T06:54:17;97027.16;;;-0.58;100.00
61039;BME280;46919;45.816;3.104;2022-12-16T06:57:00;97035.41;;;-0.52;100.00
61039;BME280;46919;45.816;3.104;2022-12-16T06:59:45;97036.06;;;-0.50;100.00
61039;BME280;46919;45.816;3.104;2022-12-16T07:02:28;97035.56;;;-0.54;100.00
61039;BME280;46919;45.816;3.104;2022-12-16T07:05:12;97038.16;;;-0.69;100.00
61039;BME280;46919;45.816;3.104;2022-12-16T07:07:56;97045.13;;;-0.68;100.00
61039;BME280;46919;45.816;3.104;2022-12-16T07:10:40;97053.41;;;-0.63;100.00
61039;BME280;46919;45.816;3.104;2022-12-16T07:13:24;97052.41;;;-0.62;100.00
61039;BME280;46919;45.816;3.104;2022-12-16T07:16:08;97057.03;;;-0.64;100.00
61039;BME280;46919;45.816;3.104;2022-12-16T07:18:52;97068.78;;;-0.58;100.00
61039;BME280;46919;45.816;3.104;2022-12-16T07:21:36;97075.66;;;-0.72;100.00
61039;BME280;46919;45.816;3.104;2022-12-16T07:24:20;97072.72;;;-0.77;100.00
61039;BME280;46919;45.816;3.104;2022-12-16T07:27:04;97084.59;;;-0.73;100.00
61039;BME280;46919;45.816;3.104;2022-12-16T07:29:47;97094.22;;;-0.72;100.00
61039;BME280;46919;45.816;3.104;2022-12-16T07:32:31;97100.00;;;-0.68;100.00
61039;BME280;46919;45.816;3.104;2022-12-16T07:35:15;97095.84;;;-0.63;100.00
61039;BME280;46919;45.816;3.104;2022-12-16T07:37:59;97110.63;;;-0.60;100.00
61039;BME280;46919;45.816;3.104;2022-12-16T07:40:43;97109.81;;;-0.69;100.00
61039;BME280;46919;45.816;3.104;2022-12-16T07:43:27;97118.75;;;-0.62;100.00
61039;BME280;46919;45.816;3.104;2022-12-16T07:46:11;97124.06;;;-0.62;100.00
61039;BME280;46919;45.816;3.104;2022-12-16T07:48:55;97129.38;;;-0.62;100.00
61039;BME280;46919;45.816;3.104;2022-12-16T07:51:39;97136.44;;;-0.54;100.00
61039;BME280;46919;45.816;3.104;2022-12-16T07:54:23;97138.44;;;-0.56;100.00
61039;BME280;46919;45.816;3.104;2022-12-16T07:57:07;97135.66;;;-0.63;100.00
61039;BME280;46919;45.816;3.104;2022-12-16T07:59:51;97135.84;;;-0.64;100.00
61039;BME280;46919;45.816;3.104;2022-12-16T08:02:35;97143.94;;;-0.58;100.00
61039;BME280;46919;45.816;3.104;2022-12-16T08:05:19;97142.94;;;-0.57;100.00
61039;BME280;46919;45.816;3.104;2022-12-16T08:08:03;97148.94;;;-0.63;100.00
61039;BME280;46919;45.816;3.104;2022-12-16T08:10:46;97156.59;;;-0.68;100.00
61039;BME280;46919;45.816;3.104;2022-12-16T08:13:30;97150.44;;;-0.68;100.00
61039;BME280;46919;45.816;3.104;2022-12-16T08:16:14;97152.44;;;-0.70;100.00
61039;BME280;46919;45.816;3.104;2022-12-16T08:18:58;97161.91;;;-0.68;100.00
61039;BME280;46919;45.816;3.104;2022-12-16T08:21:42;97155.56;;;-0.67;100.00
61039;BME280;46919;45.816;3.104;2022-12-16T08:24:26;97160.19;;;-0.61;100.00
61039;BME280;46919;45.816;3.104;2022-12-16T08:27:10;97164.84;;;-0.63;100.00
61039;BME280;46919;45.816;3.104;2022-12-16T08:29:54;97179.97;;;-0.63;100.00
61039;BME280;46919;45.816;3.104;2022-12-16T08:32:38;97179.28;;;-0.57;100.00
61039;BME280;46919;45.816;3.104;2022-12-16T08:35:22;97177.59;;;-0.58;100.00
61039;BME280;46919;45.816;3.104;2022-12-16T08:38:06;97179.63;;;-0.60;100.00
61039;BME280;46919;45.816;3.104;2022-12-16T08:40:53;97199.00;;;-0.60;100.00
61039;BME280;46919;45.816;3.104;2022-12-16T08:43:37;97194.72;;;-0.69;100.00
61039;BME280;46919;45.816;3.104;2022-12-16T08:46:21;97198.72;;;-0.65;100.00
61039;BME280;46919;45.816;3.104;2022-12-16T08:49:05;97195.03;;;-0.64;100.00
61039;BME280;46919;45.816;3.104;2022-12-16T08:51:49;97203.84;;;-0.71;100.00
61039;BME280;46919;45.816;3.104;2022-12-16T08:54:33;97214.13;;;-0.68;100.00
61039;BME280;46919;45.816;3.104;2022-12-16T08:57:17;97212.97;;;-0.66;100.00
61039;BME280;46919;45.816;3.104;2022-12-16T09:00:02;97222.94;;;-0.68;100.00
61039;BME280;46919;45.816;3.104;2022-12-16T09:02:46;97227.56;;;-0.62;100.00
61039;BME280;46919;45.816;3.104;2022-12-16T09:05:30;97226.84;;;-0.56;100.00
61039;BME280;46919;45.816;3.104;2022-12-16T09:08:13;97234.66;;;-0.62;100.00
61039;BME280;46919;45.816;3.104;2022-12-16T09:11:01;97238.00;;;-0.60;100.00
61039;BME280;46919;45.816;3.104;2022-12-16T09:13:44;97244.28;;;-0.53;100.00
61039;BME280;46919;45.816;3.104;2022-12-16T09:16:28;97243.16;;;-0.59;100.00
61039;BME280;46919;45.816;3.104;2022-12-16T09:19:12;97249.06;;;-0.48;100.00
61039;BME280;46919;45.816;3.104;2022-12-16T09:21:56;97248.22;;;-0.41;100.00
61039;BME280;46919;45.816;3.104;2022-12-16T09:24:41;97252.16;;;-0.37;100.00
61039;BME280;46919;45.816;3.104;2022-12-16T09:27:26;97254.84;;;-0.45;100.00
61039;BME280;46919;45.816;3.104;2022-12-16T09:30:10;97255.38;;;-0.41;100.00
61039;BME280;46919;45.816;3.104;2022-12-16T09:32:54;97263.69;;;-0.44;100.00
61039;BME280;46919;45.816;3.104;2022-12-16T09:35:38;97265.81;;;-0.40;100.00
61039;BME280;46919;45.816;3.104;2022-12-16T09:38:22;97264.97;;;-0.40;100.00
61039;BME280;46919;45.816;3.104;2022-12-16T09:41:27;97270.25;;;-0.32;100.00
61039;BME280;46919;45.816;3.104;2022-12-16T09:44:23;97279.19;;;-0.25;100.00
61039;BME280;46919;45.816;3.104;2022-12-16T09:50:27;97290.63;;;-0.24;100.00
61039;BME280;46919;45.816;3.104;2022-12-16T09:53:15;97291.84;;;-0.27;100.00
61039;BME280;46919;45.816;3.104;2022-12-16T09:56:02;97292.16;;;-0.30;100.00
61039;BME280;46919;45.816;3.104;2022-12-16T09:58:54;97302.13;;;-0.24;100.00
61039;BME280;46919;45.816;3.104;2022-12-16T10:01:41;97303.06;;;-0.16;100.00
61039;BME280;46919;45.816;3.104;2022-12-16T10:04:27;97300.41;;;-0.16;100.00
61039;BME280;46919;45.816;3.104;2022-12-16T10:07:19;97301.06;;;-0.14;100.00
61039;BME280;46919;45.816;3.104;2022-12-16T10:16:43;97300.38;;;-0.08;100.00
61039;BME280;46919;45.816;3.104;2022-12-16T10:22:36;97304.97;;;0.06;100.00
61039;BME280;46919;45.816;3.104;2022-12-16T10:25:24;97310.63;;;0.11;100.00
61039;BME280;46919;45.816;3.104;2022-12-16T10:31:14;97306.25;;;0.18;100.00
61039;BME280;46919;45.816;3.104;2022-12-16T10:33:59;97303.59;;;0.18;100.00
61039;BME280;46919;45.816;3.104;2022-12-16T10:36:45;97305.22;;;0.28;100.00
61039;BME280;46919;45.816;3.104;2022-12-16T10:39:35;97302.50;;;0.36;100.00
61039;BME280;46919;45.816;3.104;2022-12-16T10:42:32;97305.13;;;0.44;100.00
61039;BME280;46919;45.816;3.104;2022-12-16T10:45:27;97302.63;;;0.43;100.00
61039;BME280;46919;45.816;3.104;2022-12-16T10:48:11;97299.78;;;0.44;100.00
61039;BME280;46919;45.816;3.104;2022-12-16T10:50:58;97300.47;;;0.46;100.00
61039;BME280;46919;45.816;3.104;2022-12-16T10:53:44;97299.09;;;0.50;100.00
61039;BME280;46919;45.816;3.104;2022-12-16T10:59:36;97304.34;;;0.67;100.00
61039;BME280;46919;45.816;3.104;2022-12-16T11:02:23;97301.84;;;0.65;100.00
61039;BME280;46919;45.816;3.104;2022-12-16T11:05:33;97301.16;;;0.71;100.00
61039;BME280;46919;45.816;3.104;2022-12-16T11:08:30;97296.50;;;0.88;100.00
61039;BME280;46919;45.816;3.104;2022-12-16T11:11:26;97293.06;;;1.03;100.00
61039;BME280;46919;45.816;3.104;2022-12-16T11:14:26;97291.72;;;1.07;100.00
61039;BME280;46919;45.816;3.104;2022-12-16T11:17:11;97297.03;;;1.07;100.00
61039;BME280;46919;45.816;3.104;2022-12-16T11:20:07;97290.91;;;1.06;100.00
61039;BME280;46919;45.816;3.104;2022-12-16T11:23:25;97289.63;;;1.17;100.00
61039;BME280;46919;45.816;3.104;2022-12-16T11:26:18;97293.69;;;1.28;100.00
61039;BME280;46919;45.816;3.104;2022-12-16T11:29:09;97288.91;;;1.23;100.00
61039;BME280;46919;45.816;3.104;2022-12-16T11:32:19;97298.19;;;1.27;100.00
61039;BME280;46919;45.816;3.104;2022-12-16T11:35:09;97298.28;;;1.19;100.00
61039;BME280;46919;45.816;3.104;2022-12-16T11:37:55;97299.56;;;1.23;100.00
61039;BME280;46919;45.816;3.104;2022-12-16T11:40:40;97300.56;;;1.22;100.00
61039;BME280;46919;45.816;3.104;2022-12-16T11:43:26;97297.84;;;1.07;100.00
61039;BME280;46919;45.816;3.104;2022-12-16T11:46:25;97307.69;;;1.07;100.00
61039;BME280;46919;45.816;3.104;2022-12-16T11:49:25;97306.44;;;0.95;100.00
61039;BME280;46919;45.816;3.104;2022-12-16T11:52:14;97313.25;;;0.97;100.00
61039;BME280;46919;45.816;3.104;2022-12-16T11:55:01;97316.81;;;0.89;100.00
61039;BME280;46919;45.816;3.104;2022-12-16T12:00:32;97317.50;;;0.83;100.00
61039;BME280;46919;45.816;3.104;2022-12-16T12:03:23;97320.53;;;0.80;100.00
61039;BME280;46919;45.816;3.104;2022-12-16T12:09:24;97332.47;;;0.84;100.00
61039;BME280;46919;45.816;3.104;2022-12-16T12:12:21;97331.16;;;0.80;100.00
61039;BME280;46919;45.816;3.104;2022-12-16T12:15:28;97332.81;;;0.81;100.00
61039;BME280;46919;45.816;3.104;2022-12-16T12:21:22;97335.13;;;0.84;100.00
61039;BME280;46919;45.816;3.104;2022-12-16T12:30:12;97325.94;;;0.87;100.00
61039;BME280;46919;45.816;3.104;2022-12-16T12:36:24;97329.75;;;0.93;100.00
61039;BME280;46919;45.816;3.104;2022-12-16T12:39:39;97338.28;;;1.11;100.00
61039;BME280;46919;45.816;3.104;2022-12-16T12:42:40;97333.53;;;1.21;100.00
61039;BME280;46919;45.816;3.104;2022-12-16T12:45:56;97335.47;;;1.27;100.00
61039;BME280;46919;45.816;3.104;2022-12-16T12:48:53;97334.66;;;1.42;100.00
61039;BME280;46919;45.816;3.104;2022-12-16T12:51:59;97339.56;;;1.53;100.00
61039;BME280;46919;45.816;3.104;2022-12-16T12:57:32;97345.78;;;1.45;100.00
61039;BME280;46919;45.816;3.104;2022-12-16T13:00:20;97345.69;;;1.39;100.00
61039;BME280;46919;45.816;3.104;2022-12-16T13:05:59;97358.78;;;1.63;100.00
61039;BME280;46919;45.816;3.104;2022-12-16T13:11:39;97351.16;;;1.60;100.00
61039;BME280;46919;45.816;3.104;2022-12-16T13:20:48;97358.72;;;1.34;100.00
61039;BME280;46919;45.816;3.104;2022-12-16T13:23:40;97370.63;;;1.38;100.00
61039;BME280;46919;45.816;3.104;2022-12-16T13:26:33;97371.78;;;1.43;100.00
61039;BME280;46919;45.816;3.104;2022-12-16T13:29:26;97379.75;;;1.43;100.00
61039;BME280;46919;45.816;3.104;2022-12-16T13:46:48;97377.72;;;1.69;100.00
61039;BME280;46919;45.816;3.104;2022-12-16T13:58:18;97387.22;;;1.25;100.00
61039;BME280;46919;45.816;3.104;2022-12-16T14:01:10;97398.31;;;1.52;100.00
61039;BME280;46919;45.816;3.104;2022-12-16T14:03:55;97396.72;;;1.66;100.00
61039;BME280;46919;45.816;3.104;2022-12-16T14:06:40;97390.59;;;1.80;100.00
61039;BME280;46919;45.816;3.104;2022-12-16T14:09:32;97402.19;;;1.87;100.00
61039;BME280;46919;45.816;3.104;2022-12-16T14:22:01;97415.50;;;1.87;100.00
61039;BME280;46919;45.816;3.104;2022-12-16T14:24:49;97427.88;;;1.80;100.00
61039;BME280;46919;45.816;3.104;2022-12-16T14:27:34;97431.19;;;1.82;100.00
61039;BME280;46919;45.816;3.104;2022-12-16T14:30:21;97441.84;;;1.82;100.00
61039;BME280;46919;45.816;3.104;2022-12-16T14:33:26;97433.22;;;1.80;100.00
61039;BME280;46919;45.816;3.104;2022-12-16T14:36:25;97444.50;;;1.82;100.00
61039;BME280;46919;45.816;3.104;2022-12-16T14:39:22;97443.88;;;1.80;100.00
61039;BME280;46919;45.816;3.104;2022-12-16T14:42:22;97443.28;;;1.70;100.00
61039;BME280;46919;45.816;3.104;2022-12-16T14:45:34;97449.72;;;1.60;100.00
61039;BME280;46919;45.816;3.104;2022-12-16T14:48:31;97455.84;;;1.61;100.00
61039;BME280;46919;45.816;3.104;2022-12-16T14:51:29;97454.72;;;1.55;100.00
61039;BME280;46919;45.816;3.104;2022-12-16T14:57:20;97463.31;;;1.42;100.00
61039;BME280;46919;45.816;3.104;2022-12-16T15:06:01;97477.13;;;0.83;100.00
61039;BME280;46919;45.816;3.104;2022-12-16T15:08:59;97482.88;;;0.64;100.00
61039;BME280;46919;45.816;3.104;2022-12-16T15:11:44;97479.91;;;0.50;100.00
61039;BME280;46919;45.816;3.104;2022-12-16T15:14:32;97492.25;;;0.35;100.00
61039;BME280;46919;45.816;3.104;2022-12-16T15:17:30;97489.75;;;0.25;100.00
61039;BME280;46919;45.816;3.104;2022-12-16T15:20:22;97495.94;;;0.17;100.00
61039;BME280;46919;45.816;3.104;2022-12-16T15:23:19;97504.41;;;0.13;100.00
61039;BME280;46919;45.816;3.104;2022-12-16T15:26:04;97501.59;;;-0.02;100.00
61039;BME280;46919;45.816;3.104;2022-12-16T15:28:49;97513.38;;;-0.21;100.00
61039;BME280;46919;45.816;3.104;2022-12-16T15:31:35;97514.69;;;-0.33;100.00
61039;BME280;46919;45.816;3.104;2022-12-16T15:34:47;97516.38;;;-0.41;100.00
61039;BME280;46919;45.816;3.104;2022-12-16T15:37:35;97523.84;;;-0.44;100.00
61039;BME280;46919;45.816;3.104;2022-12-16T15:43:35;97530.28;;;-0.55;100.00
61039;BME280;46919;45.816;3.104;2022-12-16T15:46:24;97536.06;;;-0.68;100.00
61039;BME280;46919;45.816;3.104;2022-12-16T15:49:30;97540.50;;;-0.85;100.00
61039;BME280;46919;45.816;3.104;2022-12-16T15:52:51;97540.94;;;-0.98;100.00
61039;BME280;46919;45.816;3.104;2022-12-16T15:55:37;97554.84;;;-1.04;100.00
61039;BME280;46919;45.816;3.104;2022-12-16T15:58:30;97561.56;;;-1.18;100.00
61039;BME280;46919;45.816;3.104;2022-12-16T16:01:16;97560.41;;;-1.23;100.00
61039;BME280;46919;45.816;3.104;2022-12-16T16:04:02;97565.81;;;-1.33;100.00
61039;BME280;46919;45.816;3.104;2022-12-16T16:06:48;97568.94;;;-1.38;100.00
61039;BME280;46919;45.816;3.104;2022-12-16T16:09:34;97574.19;;;-1.46;100.00
61039;BME280;46919;45.816;3.104;2022-12-16T16:12:20;97587.22;;;-1.53;100.00
61039;BME280;46919;45.816;3.104;2022-12-16T16:15:06;97594.66;;;-1.56;100.00
61039;BME280;46919;45.816;3.104;2022-12-16T16:17:58;97592.63;;;-1.62;100.00
61039;BME280;46919;45.816;3.104;2022-12-16T16:20:43;97602.34;;;-1.71;100.00
61039;BME280;46919;45.816;3.104;2022-12-16T16:23:27;97603.13;;;-1.79;100.00
61039;BME280;46919;45.816;3.104;2022-12-16T16:26:16;97610.22;;;-1.79;100.00
61039;BME280;46919;45.816;3.104;2022-12-16T16:29:01;97615.31;;;-1.86;100.00